sensor_id;sensor_type;location;lat;lon;timestamp;P1;durP1;ratioP1;P2;durP2;ratioP2
10293;SDS011;5192;50.328;7.610;2023-06-26T00:01:41;6.88;;;6.18;;
10293;SDS011;5192;50.328;7.610;2023-06-26T00:04:08;7.32;;;6.45;;
10293;SDS011;5192;50.328;7.610;2023-06-26T00:06:41;6.78;;;6.20;;
10293;SDS011;5192;50.328;7.610;2023-06-26T00:09:09;7.13;;;6.45;;
10293;SDS011;5192;50.328;7.610;2023-06-26T00:11:38;6.32;;;5.82;;
10293;SDS011;5192;50.328;7.610;2023-06-26T00:14:05;7.18;;;5.93;;
10293;SDS011;5192;50.328;7.610;2023-06-26T00:16:32;6.82;;;6.13;;
10293;SDS011;5192;50.328;7.610;2023-06-26T00:18:59;7.82;;;6.55;;
10293;SDS011;5192;50.328;7.610;2023-06-26T00:21:26;6.80;;;6.20;;
10293;SDS011;5192;50.328;7.610;2023-06-26T00:23:54;6.45;;;5.50;;
10293;SDS011;5192;50.328;7.610;2023-06-26T00:26:22;7.05;;;5.97;;
10293;SDS011;5192;50.328;7.610;2023-06-26T00:28:51;7.05;;;6.35;;
10293;SDS011;5192;50.328;7.610;2023-06-26T00:31:19;7.50;;;6.80;;
10293;SDS011;5192;50.328;7.610;2023-06-26T00:33:46;7.72;;;6.55;;
10293;SDS011;5192;50.328;7.610;2023-06-26T00:36:14;7.30;;;6.50;;
10293;SDS011;5192;50.328;7.610;2023-06-26T00:38:41;7.03;;;6.38;;
10293;SDS011;5192;50.328;7.610;2023-06-26T00:41:10;7.53;;;6.80;;
10293;SDS011;5192;50.328;7.610;2023-06-26T00:43:38;8.27;;;7.57;;
10293;SDS011;5192;50.328;7.610;2023-06-26T00:46:08;8.10;;;7.38;;
10293;SDS011;5192;50.328;7.610;2023-06-26T00:48:36;7.47;;;6.72;;
10293;SDS011;5192;50.328;7.610;2023-06-26T00:51:05;8.63;;;7.82;;
10293;SDS011;5192;50.328;7.610;2023-06-26T00:53:32;7.70;;;7.00;;
10293;SDS011;5192;50.328;7.610;2023-06-26T00:56:00;8.55;;;7.75;;
10293;SDS011;5192;50.328;7.610;2023-06-26T00:58:29;8.00;;;7.32;;
10293;SDS011;5192;50.328;7.610;2023-06-26T01:00:54;8.45;;;7.63;;
10293;SDS011;5192;50.328;7.610;2023-06-26T01:03:24;8.63;;;7.83;;
10293;SDS011;5192;50.328;7.610;2023-06-26T01:05:53;8.82;;;8.02;;
10293;SDS011;5192;50.328;7.610;2023-06-26T01:08:27;8.60;;;7.70;;
10293;SDS011;5192;50.328;7.610;2023-06-26T01:10:55;8.57;;;7.88;;
10293;SDS011;5192;50.328;7.610;2023-06-26T01:13:21;8.87;;;8.07;;
10293;SDS011;5192;50.328;7.610;2023-06-26T01:15:50;8.45;;;7.32;;
10293;SDS011;5192;50.328;7.610;2023-06-26T01:18:22;8.57;;;7.60;;
10293;SDS011;5192;50.328;7.610;2023-06-26T01:20:49;7.70;;;6.90;;
10293;SDS011;5192;50.328;7.610;2023-06-26T01:23:29;7.53;;;6.82;;
10293;SDS011;5192;50.328;7.610;2023-06-26T01:29:03;6.70;;;6.10;;
10293;SDS011;5192;50.328;7.610;2023-06-26T01:31:33;7.33;;;6.60;;
10293;SDS011;5192;50.328;7.610;2023-06-26T01:34:05;7.60;;;6.80;;
10293;SDS011;5192;50.328;7.610;2023-06-26T01:36:33;8.23;;;6.60;;
10293;SDS011;5192;50.328;7.610;2023-06-26T01:39:00;6.93;;;6.22;;
10293;SDS011;5192;50.328;7.610;2023-06-26T01:41:28;8.35;;;6.50;;
10293;SDS011;5192;50.328;7.610;2023-06-26T01:44:09;7.70;;;6.90;;
10293;SDS011;5192;50.328;7.610;2023-06-26T01:55:31;8.97;;;7.30;;
10293;SDS011;5192;50.328;7.610;2023-06-26T01:58:14;8.47;;;6.83;;
10293;SDS011;5192;50.328;7.610;2023-06-26T02:00:43;8.07;;;7.30;;
10293;SDS011;5192;50.328;7.610;2023-06-26T02:03:09;7.60;;;6.90;;
10293;SDS011;5192;50.328;7.610;2023-06-26T02:05:36;8.07;;;7.27;;
10293;SDS011;5192;50.328;7.610;2023-06-26T02:08:04;7.73;;;7.03;;
10293;SDS011;5192;50.328;7.610;2023-06-26T02:10:32;7.47;;;6.78;;
10293;SDS011;5192;50.328;7.610;2023-06-26T02:12:58;7.80;;;7.00;;
10293;SDS011;5192;50.328;7.610;2023-06-26T02:15:25;7.57;;;6.87;;
10293;SDS011;5192;50.328;7.610;2023-06-26T02:17:54;7.90;;;7.10;;
10293;SDS011;5192;50.328;7.610;2023-06-26T02:20:20;8.85;;;7.38;;
10293;SDS011;5192;50.328;7.610;2023-06-26T02:22:47;7.93;;;7.23;;
10293;SDS011;5192;50.328;7.610;2023-06-26T02:25:15;8.30;;;7.40;;
10293;SDS011;5192;50.328;7.610;2023-06-26T02:27:42;8.00;;;7.20;;
10293;SDS011;5192;50.328;7.610;2023-06-26T02:30:10;8.33;;;7.53;;
10293;SDS011;5192;50.328;7.610;2023-06-26T02:32:39;8.77;;;7.85;;
10293;SDS011;5192;50.328;7.610;2023-06-26T02:35:06;7.93;;;7.23;;
10293;SDS011;5192;50.328;7.610;2023-06-26T02:37:35;8.63;;;7.83;;
10293;SDS011;5192;50.328;7.610;2023-06-26T02:40:03;7.97;;;7.17;;
10293;SDS011;5192;50.328;7.610;2023-06-26T02:42:32;8.30;;;7.50;;
10293;SDS011;5192;50.328;7.610;2023-06-26T02:45:00;8.17;;;7.37;;
10293;SDS011;5192;50.328;7.610;2023-06-26T02:47:28;8.47;;;7.67;;
10293;SDS011;5192;50.328;7.610;2023-06-26T02:49:56;8.27;;;7.47;;
10293;SDS011;5192;50.328;7.610;2023-06-26T02:52:22;7.67;;;6.97;;
10293;SDS011;5192;50.328;7.610;2023-06-26T02:54:49;8.23;;;7.43;;
10293;SDS011;5192;50.328;7.610;2023-06-26T02:57:16;8.27;;;7.40;;
10293;SDS011;5192;50.328;7.610;2023-06-26T02:59:44;8.10;;;7.30;;
10293;SDS011;5192;50.328;7.610;2023-06-26T03:02:10;8.70;;;7.90;;
10293;SDS011;5192;50.328;7.610;2023-06-26T03:04:37;7.93;;;7.23;;
10293;SDS011;5192;50.328;7.610;2023-06-26T03:07:04;8.23;;;7.43;;
10293;SDS011;5192;50.328;7.610;2023-06-26T03:09:30;8.07;;;7.27;;
10293;SDS011;5192;50.328;7.610;2023-06-26T03:11:58;7.27;;;6.67;;
10293;SDS011;5192;50.328;7.610;2023-06-26T03:14:28;7.97;;;7.27;;
10293;SDS011;5192;50.328;7.610;2023-06-26T03:16:59;8.23;;;7.43;;
10293;SDS011;5192;50.328;7.610;2023-06-26T03:19:29;8.27;;;7.47;;
10293;SDS011;5192;50.328;7.610;2023-06-26T03:21:57;9.10;;;8.17;;
10293;SDS011;5192;50.328;7.610;2023-06-26T03:24:22;8.80;;;7.90;;
10293;SDS011;5192;50.328;7.610;2023-06-26T03:26:49;9.53;;;8.53;;
10293;SDS011;5192;50.328;7.610;2023-06-26T03:29:19;9.50;;;8.57;;
10293;SDS011;5192;50.328;7.610;2023-06-26T03:31:45;10.27;;;9.10;;
10293;SDS011;5192;50.328;7.610;2023-06-26T03:34:12;9.77;;;8.77;;
10293;SDS011;5192;50.328;7.610;2023-06-26T03:36:39;9.73;;;8.77;;
10293;SDS011;5192;50.328;7.610;2023-06-26T03:39:05;8.87;;;7.93;;
10293;SDS011;5192;50.328;7.610;2023-06-26T03:41:33;8.90;;;8.10;;
10293;SDS011;5192;50.328;7.610;2023-06-26T03:44:00;8.97;;;8.07;;
10293;SDS011;5192;50.328;7.610;2023-06-26T03:46:29;8.30;;;7.50;;
10293;SDS011;5192;50.328;7.610;2023-06-26T03:48:56;8.70;;;7.90;;
10293;SDS011;5192;50.328;7.610;2023-06-26T03:51:22;9.10;;;8.20;;
10293;SDS011;5192;50.328;7.610;2023-06-26T03:53:49;8.90;;;8.10;;
10293;SDS011;5192;50.328;7.610;2023-06-26T03:56:17;8.97;;;8.07;;
10293;SDS011;5192;50.328;7.610;2023-06-26T03:58:44;9.23;;;7.87;;
10293;SDS011;5192;50.328;7.610;2023-06-26T04:01:12;8.93;;;8.13;;
10293;SDS011;5192;50.328;7.610;2023-06-26T04:03:39;8.97;;;8.13;;
10293;SDS011;5192;50.328;7.610;2023-06-26T04:06:07;9.23;;;8.33;;
10293;SDS011;5192;50.328;7.610;2023-06-26T04:08:36;9.70;;;8.37;;
10293;SDS011;5192;50.328;7.610;2023-06-26T04:11:02;9.77;;;8.77;;
10293;SDS011;5192;50.328;7.610;2023-06-26T04:13:28;10.33;;;9.13;;
10293;SDS011;5192;50.328;7.610;2023-06-26T04:15:58;9.33;;;8.43;;
10293;SDS011;5192;50.328;7.610;2023-06-26T04:18:26;9.80;;;8.90;;
10293;SDS011;5192;50.328;7.610;2023-06-26T04:23:49;11.43;;;10.33;;
10293;SDS011;5192;50.328;7.610;2023-06-26T04:26:15;9.20;;;8.30;;
10293;SDS011;5192;50.328;7.610;2023-06-26T04:28:42;9.10;;;8.30;;
10293;SDS011;5192;50.328;7.610;2023-06-26T04:31:09;8.80;;;7.90;;
10293;SDS011;5192;50.328;7.610;2023-06-26T04:33:35;9.60;;;8.70;;
10293;SDS011;5192;50.328;7.610;2023-06-26T04:36:03;9.57;;;8.37;;
10293;SDS011;5192;50.328;7.610;2023-06-26T04:38:33;9.00;;;8.07;;
10293;SDS011;5192;50.328;7.610;2023-06-26T04:41:05;10.20;;;8.63;;
10293;SDS011;5192;50.328;7.610;2023-06-26T04:43:32;10.80;;;9.80;;
10293;SDS011;5192;50.328;7.610;2023-06-26T04:45:58;8.43;;;7.73;;
10293;SDS011;5192;50.328;7.610;2023-06-26T04:48:24;9.70;;;8.70;;
10293;SDS011;5192;50.328;7.610;2023-06-26T04:50:49;9.80;;;8.90;;
10293;SDS011;5192;50.328;7.610;2023-06-26T04:53:22;13.53;;;8.30;;
10293;SDS011;5192;50.328;7.610;2023-06-26T04:55:51;8.63;;;7.87;;
10293;SDS011;5192;50.328;7.610;2023-06-26T04:58:18;10.63;;;8.00;;
10293;SDS011;5192;50.328;7.610;2023-06-26T05:00:45;8.57;;;7.77;;
10293;SDS011;5192;50.328;7.610;2023-06-26T05:03:12;8.77;;;7.97;;
10293;SDS011;5192;50.328;7.610;2023-06-26T05:05:40;8.93;;;8.13;;
10293;SDS011;5192;50.328;7.610;2023-06-26T05:08:25;9.00;;;8.20;;
10293;SDS011;5192;50.328;7.610;2023-06-26T05:10:52;8.98;;;8.18;;
10293;SDS011;5192;50.328;7.610;2023-06-26T05:13:25;8.23;;;7.43;;
10293;SDS011;5192;50.328;7.610;2023-06-26T05:15:53;8.97;;;8.17;;
10293;SDS011;5192;50.328;7.610;2023-06-26T05:18:20;9.13;;;8.23;;
10293;SDS011;5192;50.328;7.610;2023-06-26T05:20:46;8.95;;;8.05;;
10293;SDS011;5192;50.328;7.610;2023-06-26T05:23:13;8.90;;;8.10;;
10293;SDS011;5192;50.328;7.610;2023-06-26T05:25:43;9.97;;;8.27;;
10293;SDS011;5192;50.328;7.610;2023-06-26T05:28:11;10.13;;;8.75;;
10293;SDS011;5192;50.328;7.610;2023-06-26T05:30:41;8.35;;;7.63;;
10293;SDS011;5192;50.328;7.610;2023-06-26T05:33:07;8.97;;;8.13;;
10293;SDS011;5192;50.328;7.610;2023-06-26T05:35:39;8.80;;;8.00;;
10293;SDS011;5192;50.328;7.610;2023-06-26T05:38:06;8.32;;;7.53;;
10293;SDS011;5192;50.328;7.610;2023-06-26T05:40:40;7.60;;;6.90;;
10293;SDS011;5192;50.328;7.610;2023-06-26T05:43:07;8.65;;;7.80;;
10293;SDS011;5192;50.328;7.610;2023-06-26T05:45:35;8.67;;;7.87;;
10293;SDS011;5192;50.328;7.610;2023-06-26T05:48:03;8.73;;;7.88;;
10293;SDS011;5192;50.328;7.610;2023-06-26T05:50:30;8.85;;;8.05;;
10293;SDS011;5192;50.328;7.610;2023-06-26T05:52:58;8.48;;;7.68;;
10293;SDS011;5192;50.328;7.610;2023-06-26T05:55:29;8.63;;;7.47;;
10293;SDS011;5192;50.328;7.610;2023-06-26T05:57:56;9.30;;;8.35;;
10293;SDS011;5192;50.328;7.610;2023-06-26T06:00:26;7.82;;;7.05;;
10293;SDS011;5192;50.328;7.610;2023-06-26T06:02:53;8.88;;;7.45;;
10293;SDS011;5192;50.328;7.610;2023-06-26T06:05:21;7.88;;;7.07;;
10293;SDS011;5192;50.328;7.610;2023-06-26T06:07:50;8.25;;;7.45;;
10293;SDS011;5192;50.328;7.610;2023-06-26T06:10:15;8.00;;;7.30;;
10293;SDS011;5192;50.328;7.610;2023-06-26T06:12:43;7.47;;;6.78;;
10293;SDS011;5192;50.328;7.610;2023-06-26T06:15:11;7.68;;;6.97;;
10293;SDS011;5192;50.328;7.610;2023-06-26T06:17:38;7.95;;;7.05;;
10293;SDS011;5192;50.328;7.610;2023-06-26T06:20:04;7.82;;;7.10;;
10293;SDS011;5192;50.328;7.610;2023-06-26T06:22:31;9.00;;;7.35;;
10293;SDS011;5192;50.328;7.610;2023-06-26T06:24:58;8.02;;;7.22;;
10293;SDS011;5192;50.328;7.610;2023-06-26T06:27:27;8.43;;;7.40;;
10293;SDS011;5192;50.328;7.610;2023-06-26T06:29:57;7.80;;;7.00;;
10293;SDS011;5192;50.328;7.610;2023-06-26T06:32:24;8.30;;;7.38;;
10293;SDS011;5192;50.328;7.610;2023-06-26T06:34:52;7.88;;;7.18;;
10293;SDS011;5192;50.328;7.610;2023-06-26T06:37:18;8.30;;;7.45;;
10293;SDS011;5192;50.328;7.610;2023-06-26T06:39:46;7.55;;;6.82;;
10293;SDS011;5192;50.328;7.610;2023-06-26T06:42:12;7.70;;;6.85;;
10293;SDS011;5192;50.328;7.610;2023-06-26T06:44:42;8.65;;;7.50;;
10293;SDS011;5192;50.328;7.610;2023-06-26T06:47:09;9.98;;;7.32;;
10293;SDS011;5192;50.328;7.610;2023-06-26T06:49:36;8.32;;;7.25;;
10293;SDS011;5192;50.328;7.610;2023-06-26T06:52:03;8.98;;;8.02;;
10293;SDS011;5192;50.328;7.610;2023-06-26T06:54:30;9.57;;;7.90;;
10293;SDS011;5192;50.328;7.610;2023-06-26T06:56:57;8.48;;;7.68;;
10293;SDS011;5192;50.328;7.610;2023-06-26T06:59:25;8.27;;;7.43;;
10293;SDS011;5192;50.328;7.610;2023-06-26T07:01:52;8.45;;;7.43;;
10293;SDS011;5192;50.328;7.610;2023-06-26T07:04:20;8.00;;;7.20;;
10293;SDS011;5192;50.328;7.610;2023-06-26T07:06:47;7.53;;;6.75;;
10293;SDS011;5192;50.328;7.610;2023-06-26T07:09:15;8.25;;;7.45;;
10293;SDS011;5192;50.328;7.610;2023-06-26T07:11:43;8.48;;;7.70;;
10293;SDS011;5192;50.328;7.610;2023-06-26T07:14:11;8.82;;;7.93;;
10293;SDS011;5192;50.328;7.610;2023-06-26T07:16:40;9.98;;;7.50;;
10293;SDS011;5192;50.328;7.610;2023-06-26T07:19:07;8.32;;;7.53;;
10293;SDS011;5192;50.328;7.610;2023-06-26T07:21:35;8.95;;;8.02;;
10293;SDS011;5192;50.328;7.610;2023-06-26T07:24:02;11.80;;;9.27;;
10293;SDS011;5192;50.328;7.610;2023-06-26T07:26:30;10.20;;;9.13;;
10293;SDS011;5192;50.328;7.610;2023-06-26T07:28:57;10.15;;;7.15;;
10293;SDS011;5192;50.328;7.610;2023-06-26T07:31:24;10.30;;;6.95;;
10293;SDS011;5192;50.328;7.610;2023-06-26T07:33:51;7.20;;;6.50;;
10293;SDS011;5192;50.328;7.610;2023-06-26T07:36:18;9.43;;;6.70;;
10293;SDS011;5192;50.328;7.610;2023-06-26T07:38:45;7.75;;;7.05;;
10293;SDS011;5192;50.328;7.610;2023-06-26T07:41:13;7.93;;;6.95;;
10293;SDS011;5192;50.328;7.610;2023-06-26T07:43:39;8.32;;;7.28;;
10293;SDS011;5192;50.328;7.610;2023-06-26T07:46:06;7.32;;;6.60;;
10293;SDS011;5192;50.328;7.610;2023-06-26T07:48:36;11.18;;;6.72;;
10293;SDS011;5192;50.328;7.610;2023-06-26T07:51:02;8.25;;;6.80;;
10293;SDS011;5192;50.328;7.610;2023-06-26T07:53:29;7.65;;;6.85;;
10293;SDS011;5192;50.328;7.610;2023-06-26T07:55:57;7.20;;;6.43;;
10293;SDS011;5192;50.328;7.610;2023-06-26T07:58:25;7.55;;;6.63;;
10293;SDS011;5192;50.328;7.610;2023-06-26T08:00:52;8.27;;;6.55;;
10293;SDS011;5192;50.328;7.610;2023-06-26T08:03:19;7.28;;;6.57;;
10293;SDS011;5192;50.328;7.610;2023-06-26T08:05:46;6.97;;;6.20;;
10293;SDS011;5192;50.328;7.610;2023-06-26T08:08:14;7.72;;;6.85;;
10293;SDS011;5192;50.328;7.610;2023-06-26T08:10:43;8.25;;;6.65;;
10293;SDS011;5192;50.328;7.610;2023-06-26T08:13:08;13.07;;;7.05;;
10293;SDS011;5192;50.328;7.610;2023-06-26T08:15:36;7.65;;;6.90;;
10293;SDS011;5192;50.328;7.610;2023-06-26T08:18:05;7.50;;;6.45;;
10293;SDS011;5192;50.328;7.610;2023-06-26T08:20:36;7.20;;;6.25;;
10293;SDS011;5192;50.328;7.610;2023-06-26T08:23:03;7.10;;;6.50;;
10293;SDS011;5192;50.328;7.610;2023-06-26T08:25:30;7.40;;;6.70;;
10293;SDS011;5192;50.328;7.610;2023-06-26T08:27:56;8.68;;;6.45;;
10293;SDS011;5192;50.328;7.610;2023-06-26T08:30:24;7.35;;;6.07;;
10293;SDS011;5192;50.328;7.610;2023-06-26T08:32:54;6.82;;;6.15;;
10293;SDS011;5192;50.328;7.610;2023-06-26T08:35:23;6.63;;;5.93;;
10293;SDS011;5192;50.328;7.610;2023-06-26T08:37:50;6.68;;;5.63;;
10293;SDS011;5192;50.328;7.610;2023-06-26T08:40:17;7.93;;;5.90;;
10293;SDS011;5192;50.328;7.610;2023-06-26T08:42:44;7.57;;;5.55;;
10293;SDS011;5192;50.328;7.610;2023-06-26T08:45:13;6.45;;;5.63;;
10293;SDS011;5192;50.328;7.610;2023-06-26T08:47:42;7.32;;;6.30;;
10293;SDS011;5192;50.328;7.610;2023-06-26T08:50:12;6.13;;;5.43;;
10293;SDS011;5192;50.328;7.610;2023-06-26T08:52:47;7.68;;;5.40;;
10293;SDS011;5192;50.328;7.610;2023-06-26T08:55:42;6.60;;;5.40;;
10293;SDS011;5192;50.328;7.610;2023-06-26T08:58:13;7.20;;;5.38;;
10293;SDS011;5192;50.328;7.610;2023-06-26T09:00:40;8.50;;;5.25;;
10293;SDS011;5192;50.328;7.610;2023-06-26T09:03:07;6.80;;;5.15;;
10293;SDS011;5192;50.328;7.610;2023-06-26T09:05:35;8.60;;;5.60;;
10293;SDS011;5192;50.328;7.610;2023-06-26T09:08:02;8.48;;;5.30;;
10293;SDS011;5192;50.328;7.610;2023-06-26T09:10:29;5.88;;;5.18;;
10293;SDS011;5192;50.328;7.610;2023-06-26T09:12:55;4.80;;;4.30;;
10293;SDS011;5192;50.328;7.610;2023-06-26T09:15:24;6.78;;;4.97;;
10293;SDS011;5192;50.328;7.610;2023-06-26T09:17:56;7.38;;;5.45;;
10293;SDS011;5192;50.328;7.610;2023-06-26T09:20:23;9.18;;;5.38;;
10293;SDS011;5192;50.328;7.610;2023-06-26T09:22:54;5.78;;;4.97;;
10293;SDS011;5192;50.328;7.610;2023-06-26T09:25:22;6.43;;;5.15;;
10293;SDS011;5192;50.328;7.610;2023-06-26T09:27:55;6.03;;;4.82;;
10293;SDS011;5192;50.328;7.610;2023-06-26T09:30:21;6.05;;;5.43;;
10293;SDS011;5192;50.328;7.610;2023-06-26T09:32:49;6.68;;;5.45;;
10293;SDS011;5192;50.328;7.610;2023-06-26T09:35:17;7.57;;;5.47;;
10293;SDS011;5192;50.328;7.610;2023-06-26T09:37:43;8.80;;;5.32;;
10293;SDS011;5192;50.328;7.610;2023-06-26T09:40:13;6.15;;;5.55;;
10293;SDS011;5192;50.328;7.610;2023-06-26T09:42:39;8.15;;;5.10;;
10293;SDS011;5192;50.328;7.610;2023-06-26T09:45:06;11.10;;;5.60;;
10293;SDS011;5192;50.328;7.610;2023-06-26T09:47:34;6.65;;;5.45;;
10293;SDS011;5192;50.328;7.610;2023-06-26T09:50:02;8.35;;;5.55;;
10293;SDS011;5192;50.328;7.610;2023-06-26T09:52:31;6.68;;;5.30;;
10293;SDS011;5192;50.328;7.610;2023-06-26T09:55:11;7.55;;;5.57;;
10293;SDS011;5192;50.328;7.610;2023-06-26T09:57:40;9.15;;;5.68;;
10293;SDS011;5192;50.328;7.610;2023-06-26T10:00:07;9.00;;;6.00;;
10293;SDS011;5192;50.328;7.610;2023-06-26T10:02:34;8.95;;;5.43;;
10293;SDS011;5192;50.328;7.610;2023-06-26T10:05:01;6.68;;;6.05;;
10293;SDS011;5192;50.328;7.610;2023-06-26T10:07:28;10.45;;;6.43;;
10293;SDS011;5192;50.328;7.610;2023-06-26T10:09:55;8.50;;;6.07;;
10293;SDS011;5192;50.328;7.610;2023-06-26T10:12:28;8.00;;;6.10;;
10293;SDS011;5192;50.328;7.610;2023-06-26T10:14:55;8.25;;;6.10;;
10293;SDS011;5192;50.328;7.610;2023-06-26T10:17:24;7.47;;;6.28;;
10293;SDS011;5192;50.328;7.610;2023-06-26T10:19:55;11.38;;;6.63;;
10293;SDS011;5192;50.328;7.610;2023-06-26T10:22:31;7.15;;;6.45;;
10293;SDS011;5192;50.328;7.610;2023-06-26T10:25:07;8.70;;;6.13;;
10293;SDS011;5192;50.328;7.610;2023-06-26T10:27:38;7.68;;;6.10;;
10293;SDS011;5192;50.328;7.610;2023-06-26T10:30:13;7.65;;;5.85;;
10293;SDS011;5192;50.328;7.610;2023-06-26T10:32:43;7.97;;;6.30;;
10293;SDS011;5192;50.328;7.610;2023-06-26T10:35:12;7.18;;;5.78;;
10293;SDS011;5192;50.328;7.610;2023-06-26T10:37:46;8.15;;;5.78;;
10293;SDS011;5192;50.328;7.610;2023-06-26T10:40:44;9.13;;;5.93;;
10293;SDS011;5192;50.328;7.610;2023-06-26T10:43:12;9.32;;;5.85;;
10293;SDS011;5192;50.328;7.610;2023-06-26T10:45:49;7.75;;;5.47;;
10293;SDS011;5192;50.328;7.610;2023-06-26T10:48:21;7.55;;;4.97;;
10293;SDS011;5192;50.328;7.610;2023-06-26T10:50:49;6.85;;;5.40;;
10293;SDS011;5192;50.328;7.610;2023-06-26T10:56:02;9.60;;;5.05;;
10293;SDS011;5192;50.328;7.610;2023-06-26T10:58:42;7.75;;;5.22;;
10293;SDS011;5192;50.328;7.610;2023-06-26T11:04:05;5.25;;;4.72;;
10293;SDS011;5192;50.328;7.610;2023-06-26T11:06:34;7.38;;;4.85;;
10293;SDS011;5192;50.328;7.610;2023-06-26T11:14:35;10.32;;;4.90;;
10293;SDS011;5192;50.328;7.610;2023-06-26T11:17:03;7.25;;;4.20;;
10293;SDS011;5192;50.328;7.610;2023-06-26T11:19:32;5.70;;;5.03;;
10293;SDS011;5192;50.328;7.610;2023-06-26T11:22:02;6.18;;;5.10;;
10293;SDS011;5192;50.328;7.610;2023-06-26T11:24:29;8.00;;;3.97;;
10293;SDS011;5192;50.328;7.610;2023-06-26T11:27:01;6.00;;;4.15;;
10293;SDS011;5192;50.328;7.610;2023-06-26T11:29:31;6.60;;;4.03;;
10293;SDS011;5192;50.328;7.610;2023-06-26T11:32:00;4.28;;;3.80;;
10293;SDS011;5192;50.328;7.610;2023-06-26T11:34:31;4.63;;;4.00;;
10293;SDS011;5192;50.328;7.610;2023-06-26T11:37:00;9.23;;;3.72;;
10293;SDS011;5192;50.328;7.610;2023-06-26T11:39:30;6.22;;;3.85;;
10293;SDS011;5192;50.328;7.610;2023-06-26T11:41:58;4.78;;;3.72;;
10293;SDS011;5192;50.328;7.610;2023-06-26T11:44:28;6.63;;;3.78;;
10293;SDS011;5192;50.328;7.610;2023-06-26T11:46:56;6.68;;;3.90;;
10293;SDS011;5192;50.328;7.610;2023-06-26T11:49:23;7.75;;;3.70;;
10293;SDS011;5192;50.328;7.610;2023-06-26T11:51:52;5.28;;;3.70;;
10293;SDS011;5192;50.328;7.610;2023-06-26T11:54:25;5.53;;;3.88;;
10293;SDS011;5192;50.328;7.610;2023-06-26T11:56:57;8.65;;;3.88;;
10293;SDS011;5192;50.328;7.610;2023-06-26T11:59:37;6.10;;;3.60;;
10293;SDS011;5192;50.328;7.610;2023-06-26T12:02:07;4.53;;;3.65;;
10293;SDS011;5192;50.328;7.610;2023-06-26T12:04:50;5.93;;;3.25;;
10293;SDS011;5192;50.328;7.610;2023-06-26T12:07:17;6.05;;;3.05;;
10293;SDS011;5192;50.328;7.610;2023-06-26T12:09:48;6.55;;;3.25;;
10293;SDS011;5192;50.328;7.610;2023-06-26T12:12:14;5.20;;;2.90;;
10293;SDS011;5192;50.328;7.610;2023-06-26T12:14:47;7.18;;;3.40;;
10293;SDS011;5192;50.328;7.610;2023-06-26T12:17:14;6.22;;;3.55;;
10293;SDS011;5192;50.328;7.610;2023-06-26T12:19:44;8.15;;;3.00;;
10293;SDS011;5192;50.328;7.610;2023-06-26T12:22:13;4.75;;;2.95;;
10293;SDS011;5192;50.328;7.610;2023-06-26T12:24:39;6.15;;;2.92;;
10293;SDS011;5192;50.328;7.610;2023-06-26T12:27:13;5.68;;;2.50;;
10293;SDS011;5192;50.328;7.610;2023-06-26T12:29:46;5.07;;;3.03;;
10293;SDS011;5192;50.328;7.610;2023-06-26T12:32:19;5.10;;;2.42;;
10293;SDS011;5192;50.328;7.610;2023-06-26T12:34:52;4.43;;;2.60;;
10293;SDS011;5192;50.328;7.610;2023-06-26T12:37:18;5.65;;;3.05;;
10293;SDS011;5192;50.328;7.610;2023-06-26T12:39:51;5.90;;;3.03;;
10293;SDS011;5192;50.328;7.610;2023-06-26T12:42:27;5.22;;;2.83;;
10293;SDS011;5192;50.328;7.610;2023-06-26T12:45:09;4.22;;;2.97;;
10293;SDS011;5192;50.328;7.610;2023-06-26T12:47:37;5.25;;;3.00;;
10293;SDS011;5192;50.328;7.610;2023-06-26T12:50:07;4.97;;;2.45;;
10293;SDS011;5192;50.328;7.610;2023-06-26T12:52:34;4.97;;;2.67;;
10293;SDS011;5192;50.328;7.610;2023-06-26T12:55:02;3.75;;;2.65;;
10293;SDS011;5192;50.328;7.610;2023-06-26T12:57:30;5.35;;;2.60;;
10293;SDS011;5192;50.328;7.610;2023-06-26T12:59:59;3.72;;;2.50;;
10293;SDS011;5192;50.328;7.610;2023-06-26T13:02:26;4.32;;;2.28;;
10293;SDS011;5192;50.328;7.610;2023-06-26T13:04:53;6.25;;;2.50;;
10293;SDS011;5192;50.328;7.610;2023-06-26T13:07:21;4.20;;;2.30;;
10293;SDS011;5192;50.328;7.610;2023-06-26T13:09:51;6.53;;;2.47;;
10293;SDS011;5192;50.328;7.610;2023-06-26T13:12:18;4.90;;;2.47;;
10293;SDS011;5192;50.328;7.610;2023-06-26T13:14:46;4.93;;;2.60;;
10293;SDS011;5192;50.328;7.610;2023-06-26T13:17:13;5.65;;;2.47;;
10293;SDS011;5192;50.328;7.610;2023-06-26T13:19:39;3.47;;;2.40;;
10293;SDS011;5192;50.328;7.610;2023-06-26T13:22:06;10.05;;;2.70;;
10293;SDS011;5192;50.328;7.610;2023-06-26T13:24:31;4.53;;;2.38;;
10293;SDS011;5192;50.328;7.610;2023-06-26T13:26:59;7.38;;;2.50;;
10293;SDS011;5192;50.328;7.610;2023-06-26T13:29:26;6.70;;;2.55;;
10293;SDS011;5192;50.328;7.610;2023-06-26T13:31:52;3.95;;;2.30;;
10293;SDS011;5192;50.328;7.610;2023-06-26T13:34:21;5.35;;;2.25;;
10293;SDS011;5192;50.328;7.610;2023-06-26T13:36:50;4.60;;;2.40;;
10293;SDS011;5192;50.328;7.610;2023-06-26T13:39:17;3.25;;;2.50;;
10293;SDS011;5192;50.328;7.610;2023-06-26T13:41:44;4.78;;;2.15;;
10293;SDS011;5192;50.328;7.610;2023-06-26T13:44:11;4.95;;;2.38;;
10293;SDS011;5192;50.328;7.610;2023-06-26T13:46:38;5.32;;;2.22;;
10293;SDS011;5192;50.328;7.610;2023-06-26T13:49:06;4.90;;;2.40;;
10293;SDS011;5192;50.328;7.610;2023-06-26T13:51:33;5.30;;;2.35;;
10293;SDS011;5192;50.328;7.610;2023-06-26T13:53:59;3.88;;;2.08;;
10293;SDS011;5192;50.328;7.610;2023-06-26T13:56:27;5.13;;;2.60;;
10293;SDS011;5192;50.328;7.610;2023-06-26T13:58:57;3.75;;;2.15;;
10293;SDS011;5192;50.328;7.610;2023-06-26T14:01:26;3.85;;;2.58;;
10293;SDS011;5192;50.328;7.610;2023-06-26T14:03:53;6.95;;;2.35;;
10293;SDS011;5192;50.328;7.610;2023-06-26T14:06:19;5.05;;;2.30;;
10293;SDS011;5192;50.328;7.610;2023-06-26T14:08:47;3.60;;;2.25;;
10293;SDS011;5192;50.328;7.610;2023-06-26T14:11:17;3.65;;;2.20;;
10293;SDS011;5192;50.328;7.610;2023-06-26T14:13:44;3.20;;;2.50;;
10293;SDS011;5192;50.328;7.610;2023-06-26T14:16:11;4.78;;;2.35;;
10293;SDS011;5192;50.328;7.610;2023-06-26T14:18:39;5.28;;;2.22;;
10293;SDS011;5192;50.328;7.610;2023-06-26T14:21:07;5.28;;;2.70;;
10293;SDS011;5192;50.328;7.610;2023-06-26T14:23:34;4.35;;;2.13;;
10293;SDS011;5192;50.328;7.610;2023-06-26T14:26:05;4.90;;;2.28;;
10293;SDS011;5192;50.328;7.610;2023-06-26T14:28:32;3.90;;;2.10;;
10293;SDS011;5192;50.328;7.610;2023-06-26T14:31:01;5.32;;;2.42;;
10293;SDS011;5192;50.328;7.610;2023-06-26T14:33:28;5.50;;;2.42;;
10293;SDS011;5192;50.328;7.610;2023-06-26T14:35:56;5.63;;;2.55;;
10293;SDS011;5192;50.328;7.610;2023-06-26T14:38:23;2.95;;;2.17;;
10293;SDS011;5192;50.328;7.610;2023-06-26T14:40:51;3.90;;;2.38;;
10293;SDS011;5192;50.328;7.610;2023-06-26T14:43:17;4.97;;;2.70;;
10293;SDS011;5192;50.328;7.610;2023-06-26T14:45:43;5.10;;;2.40;;
10293;SDS011;5192;50.328;7.610;2023-06-26T14:48:12;3.65;;;2.40;;
10293;SDS011;5192;50.328;7.610;2023-06-26T14:50:40;4.35;;;2.28;;
10293;SDS011;5192;50.328;7.610;2023-06-26T14:53:07;3.53;;;2.15;;
10293;SDS011;5192;50.328;7.610;2023-06-26T14:55:35;5.20;;;2.55;;
10293;SDS011;5192;50.328;7.610;2023-06-26T14:58:03;6.57;;;2.45;;
10293;SDS011;5192;50.328;7.610;2023-06-26T15:00:28;5.53;;;2.65;;
10293;SDS011;5192;50.328;7.610;2023-06-26T15:02:56;4.32;;;2.30;;
10293;SDS011;5192;50.328;7.610;2023-06-26T15:05:23;5.43;;;2.55;;
10293;SDS011;5192;50.328;7.610;2023-06-26T15:07:52;4.70;;;2.35;;
10293;SDS011;5192;50.328;7.610;2023-06-26T15:10:19;3.65;;;2.40;;
10293;SDS011;5192;50.328;7.610;2023-06-26T15:12:46;4.80;;;2.35;;
10293;SDS011;5192;50.328;7.610;2023-06-26T15:15:14;4.65;;;2.15;;
10293;SDS011;5192;50.328;7.610;2023-06-26T15:17:44;4.05;;;2.25;;
10293;SDS011;5192;50.328;7.610;2023-06-26T15:20:10;2.95;;;2.20;;
10293;SDS011;5192;50.328;7.610;2023-06-26T15:22:36;3.60;;;2.22;;
10293;SDS011;5192;50.328;7.610;2023-06-26T15:25:05;5.50;;;2.30;;
10293;SDS011;5192;50.328;7.610;2023-06-26T15:27:33;4.25;;;2.13;;
10293;SDS011;5192;50.328;7.610;2023-06-26T15:30:00;7.18;;;2.53;;
10293;SDS011;5192;50.328;7.610;2023-06-26T15:32:31;3.55;;;2.10;;
10293;SDS011;5192;50.328;7.610;2023-06-26T15:34:58;4.35;;;2.28;;